Time,TemperatureF,DewpointF,PressureIn,WindDirection,WindDirectionDegrees,WindSpeedMPH,WindSpeedGustMPH,Humidity,HourlyPrecipIn,Conditions,Clouds,dailyrainin,SoftwareType,DateUTC
2013-04-19 00:00:00,49.7,45.6,30.15,SW,225,0.4,1.8,86,0.00,,,0.00,WUHU216HW,2013-04-19 07:00:00,
2013-04-19 00:05:00,49.7,45.6,30.15,SSE,158,2.5,2.5,86,0.00,,,0.00,WUHU216HW,2013-04-19 07:05:00,
2013-04-19 00:11:00,49.7,45.6,30.15,SSE,158,1.1,4.0,86,0.00,,,0.00,WUHU216HW,2013-04-19 07:11:00,
2013-04-19 00:16:00,49.5,45.5,30.15,SE,135,1.3,4.0,86,0.00,,,0.00,WUHU216HW,2013-04-19 07:16:00,
2013-04-19 00:21:00,49.7,45.9,30.14,SE,135,1.1,5.4,87,0.00,,,0.00,WUHU216HW,2013-04-19 07:21:00,
2013-04-19 00:26:00,49.5,45.5,30.14,SSE,158,3.4,5.4,86,0.00,,,0.00,WUHU216HW,2013-04-19 07:26:00,
2013-04-19 00:31:00,49.5,45.5,30.14,SSW,203,4.0,6.7,86,0.00,,,0.00,WUHU216HW,2013-04-19 07:31:00,
2013-04-19 00:36:00,49.5,45.5,30.14,SSE,158,3.6,6.7,86,0.00,,,0.00,WUHU216HW,2013-04-19 07:36:00,
2013-04-19 00:41:00,49.5,45.5,30.14,West,270,2.0,4.3,86,0.00,,,0.00,WUHU216HW,2013-04-19 07:41:00,
2013-04-19 00:46:00,49.5,45.5,30.14,SSE,158,2.5,4.3,86,0.00,,,0.00,WUHU216HW,2013-04-19 07:46:00,
2013-04-19 00:51:00,49.5,45.5,30.13,ESE,113,1.1,4.7,86,0.01,,,0.01,WUHU216HW,2013-04-19 07:51:00,
2013-04-19 00:56:00,49.5,45.5,30.13,SW,225,4.3,4.7,86,0.01,,,0.01,WUHU216HW,2013-04-19 07:56:00,
2013-04-19 01:01:00,49.5,45.7,30.13,SSE,158,1.1,6.3,87,0.01,,,0.01,WUHU216HW,2013-04-19 08:01:00,
2013-04-19 01:07:00,49.5,45.7,30.13,SE,135,2.2,6.9,87,0.02,,,0.02,WUHU216HW,2013-04-19 08:07:00,
2013-04-19 01:12:00,49.5,45.7,30.13,ESE,113,3.8,6.9,87,0.02,,,0.02,WUHU216HW,2013-04-19 08:12:00,
2013-04-19 01:17:00,49.5,45.7,30.12,SSE,158,2.2,5.8,87,0.03,,,0.03,WUHU216HW,2013-04-19 08:17:00,
2013-04-19 01:22:00,49.5,45.7,30.12,SE,135,1.8,5.8,87,0.03,,,0.03,WUHU216HW,2013-04-19 08:22:00,
2013-04-19 01:27:00,49.5,45.7,30.12,ESE,113,4.9,6.7,87,0.03,,,0.03,WUHU216HW,2013-04-19 08:27:00,
2013-04-19 01:32:00,49.5,45.7,30.12,ESE,113,2.5,6.7,87,0.03,,,0.03,WUHU216HW,2013-04-19 08:32:00,
2013-04-19 01:37:00,49.5,45.7,30.12,SSE,158,1.8,6.0,87,0.04,,,0.04,WUHU216HW,2013-04-19 08:37:00,
2013-04-19 01:42:00,49.5,45.7,30.12,South,180,1.6,4.9,87,0.04,,,0.04,WUHU216HW,2013-04-19 08:42:00,
2013-04-19 01:47:00,49.5,45.7,30.12,SW,225,1.6,4.9,87,0.03,,,0.04,WUHU216HW,2013-04-19 08:47:00,
2013-04-19 01:52:00,49.5,45.7,30.11,SE,135,4.0,4.0,87,0.04,,,0.05,WUHU216HW,2013-04-19 08:52:00,
2013-04-19 01:57:00,49.5,45.7,30.11,SW,225,2.5,4.7,87,0.04,,,0.05,WUHU216HW,2013-04-19 08:57:00,
2013-04-19 02:02:00,49.5,45.7,30.11,SSE,158,3.4,5.6,87,0.04,,,0.05,WUHU216HW,2013-04-19 09:02:00,
2013-04-19 02:08:00,49.5,45.7,30.11,SSE,158,3.1,5.6,87,0.04,,,0.06,WUHU216HW,2013-04-19 09:08:00,
2013-04-19 02:13:00,49.5,45.7,30.11,SE,135,7.2,7.2,87,0.04,,,0.06,WUHU216HW,2013-04-19 09:13:00,
2013-04-19 02:18:00,49.5,45.7,30.11,SE,135,1.3,7.2,87,0.03,,,0.06,WUHU216HW,2013-04-19 09:18:00,
2013-04-19 02:23:00,49.5,45.7,30.10,SSE,158,7.4,7.6,87,0.03,,,0.06,WUHU216HW,2013-04-19 09:23:00,
2013-04-19 02:28:00,49.5,45.7,30.10,SE,135,3.1,7.6,87,0.03,,,0.06,WUHU216HW,2013-04-19 09:28:00,
2013-04-19 02:33:00,49.5,45.7,30.10,SSE,158,3.6,8.1,87,0.02,,,0.06,WUHU216HW,2013-04-19 09:33:00,
2013-04-19 02:38:00,49.5,45.7,30.09,SSW,203,4.0,8.1,87,0.02,,,0.06,WUHU216HW,2013-04-19 09:38:00,
2013-04-19 02:43:00,49.5,45.7,30.09,SSE,158,5.4,6.3,87,0.02,,,0.06,WUHU216HW,2013-04-19 09:43:00,
2013-04-19 02:48:00,49.5,45.7,30.09,SSE,158,3.6,5.4,87,0.03,,,0.07,WUHU216HW,2013-04-19 09:48:00,
2013-04-19 02:53:00,49.5,46.1,30.08,SSW,203,0.4,5.6,88,0.02,,,0.07,WUHU216HW,2013-04-19 09:53:00,
2013-04-19 02:58:00,49.5,46.1,30.08,SE,135,1.8,5.6,88,0.02,,,0.07,WUHU216HW,2013-04-19 09:58:00,
2013-04-19 03:04:00,49.5,45.7,30.08,SSE,158,2.5,5.6,87,0.01,,,0.07,WUHU216HW,2013-04-19 10:04:00,
2013-04-19 03:09:00,49.5,45.7,30.08,SE,135,2.7,5.8,87,0.02,,,0.08,WUHU216HW,2013-04-19 10:09:00,
2013-04-19 03:14:00,49.5,46.1,30.07,ESE,113,2.5,5.8,88,0.02,,,0.08,WUHU216HW,2013-04-19 10:14:00,
2013-04-19 03:19:00,49.5,46.1,30.07,SE,135,4.0,5.8,88,0.02,,,0.08,WUHU216HW,2013-04-19 10:19:00,
2013-04-19 03:24:00,49.5,46.1,30.07,SE,135,2.5,5.8,88,0.03,,,0.09,WUHU216HW,2013-04-19 10:24:00,
2013-04-19 03:29:00,49.5,46.1,30.07,SSE,158,2.7,4.0,88,0.03,,,0.09,WUHU216HW,2013-04-19 10:29:00,
2013-04-19 03:34:00,49.5,46.1,30.07,SE,135,3.4,6.3,88,0.03,,,0.09,WUHU216HW,2013-04-19 10:34:00,
2013-04-19 03:39:00,49.5,46.1,30.06,SE,135,5.4,7.4,88,0.03,,,0.09,WUHU216HW,2013-04-19 10:39:00,
2013-04-19 03:44:00,49.5,46.1,30.06,South,180,15.7,15.7,88,0.02,,,0.09,WUHU216HW,2013-04-19 10:44:00,
2013-04-19 03:49:00,49.5,46.1,30.06,SSE,158,4.3,15.7,88,0.02,,,0.09,WUHU216HW,2013-04-19 10:49:00,
2013-04-19 03:54:00,49.5,46.1,30.05,SSE,158,3.8,9.8,88,0.02,,,0.09,WUHU216HW,2013-04-19 10:54:00,
2013-04-19 03:59:00,49.7,46.3,30.05,West,270,4.7,7.8,88,0.02,,,0.09,WUHU216HW,2013-04-19 10:59:00,
2013-04-19 04:05:00,49.7,46.3,30.05,SSE,158,3.6,7.6,88,0.02,,,0.09,WUHU216HW,2013-04-19 11:05:00,
2013-04-19 04:10:00,49.7,46.3,30.05,ESE,113,0.7,7.6,88,0.01,,,0.09,WUHU216HW,2013-04-19 11:10:00,
2013-04-19 04:15:00,49.7,46.3,30.05,SE,135,2.5,4.9,88,0.01,,,0.09,WUHU216HW,2013-04-19 11:15:00,
2013-04-19 04:20:00,49.7,46.3,30.04,South,180,3.8,6.3,88,0.00,,,0.09,WUHU216HW,2013-04-19 11:20:00,
2013-04-19 04:25:00,49.7,46.3,30.04,South,180,7.6,13.6,88,0.00,,,0.09,WUHU216HW,2013-04-19 11:25:00,
2013-04-19 04:30:00,49.7,46.3,30.04,SSW,203,5.1,13.6,88,0.00,,,0.09,WUHU216HW,2013-04-19 11:30:00,
2013-04-19 04:35:00,49.7,46.3,30.04,South,180,3.1,6.9,88,0.00,,,0.09,WUHU216HW,2013-04-19 11:35:00,
2013-04-19 04:40:00,49.7,46.3,30.04,SE,135,5.4,6.9,88,0.00,,,0.09,WUHU216HW,2013-04-19 11:40:00,
2013-04-19 04:45:00,49.7,46.3,30.04,South,180,6.0,8.5,88,0.00,,,0.09,WUHU216HW,2013-04-19 11:45:00,
2013-04-19 04:50:00,49.7,46.3,30.04,SE,135,1.6,8.5,88,0.00,,,0.09,WUHU216HW,2013-04-19 11:50:00,
2013-04-19 04:55:00,49.7,46.3,30.04,South,180,2.7,7.8,88,0.00,,,0.09,WUHU216HW,2013-04-19 11:55:00,
2013-04-19 05:00:00,49.5,46.1,30.04,SSE,158,2.9,6.9,88,0.00,,,0.09,WUHU216HW,2013-04-19 12:00:00,
2013-04-19 05:06:00,49.5,46.1,30.04,South,180,5.6,8.1,88,0.00,,,0.09,WUHU216HW,2013-04-19 12:06:00,
2013-04-19 05:11:00,49.7,46.3,30.04,South,180,1.8,8.1,88,0.00,,,0.09,WUHU216HW,2013-04-19 12:11:00,
2013-04-19 05:16:00,49.7,46.3,30.04,SSW,203,1.6,6.5,88,0.00,,,0.09,WUHU216HW,2013-04-19 12:16:00,
2013-04-19 05:21:00,49.5,46.1,30.03,South,180,5.1,6.5,88,0.00,,,0.09,WUHU216HW,2013-04-19 12:21:00,
2013-04-19 05:26:00,49.5,46.1,30.04,SSW,203,2.0,6.9,88,0.00,,,0.09,WUHU216HW,2013-04-19 12:26:00,
2013-04-19 05:31:00,49.5,46.1,30.03,SSW,203,1.1,6.9,88,0.00,,,0.09,WUHU216HW,2013-04-19 12:31:00,
2013-04-19 05:36:00,49.5,46.1,30.04,SSW,203,2.5,6.3,88,0.00,,,0.09,WUHU216HW,2013-04-19 12:36:00,
2013-04-19 05:41:00,49.5,46.1,30.03,SE,135,1.3,4.3,88,0.00,,,0.09,WUHU216HW,2013-04-19 12:41:00,
2013-04-19 05:46:00,49.7,46.3,30.03,ESE,113,0.7,5.1,88,0.00,,,0.09,WUHU216HW,2013-04-19 12:46:00,
2013-04-19 05:51:00,49.5,46.1,30.03,SSE,158,2.0,5.8,88,0.00,,,0.09,WUHU216HW,2013-04-19 12:51:00,
2013-04-19 05:56:00,49.7,46.3,30.03,SSW,203,1.8,5.8,88,0.00,,,0.09,WUHU216HW,2013-04-19 12:56:00,
2013-04-19 06:02:00,49.7,46.3,30.03,ESE,113,1.8,5.4,88,0.00,,,0.09,WUHU216HW,2013-04-19 13:02:00,
2013-04-19 06:07:00,49.7,46.3,30.03,SSW,203,0.9,5.8,88,0.00,,,0.09,WUHU216HW,2013-04-19 13:07:00,
2013-04-19 06:12:00,49.7,46.3,30.03,SSE,158,2.9,5.8,88,0.00,,,0.09,WUHU216HW,2013-04-19 13:12:00,
2013-04-19 06:17:00,49.7,46.3,30.03,SE,135,2.5,3.6,88,0.00,,,0.09,WUHU216HW,2013-04-19 13:17:00,
2013-04-19 06:22:00,49.7,46.3,30.03,SSW,203,2.7,3.6,88,0.00,,,0.09,WUHU216HW,2013-04-19 13:22:00,
2013-04-19 06:27:00,49.7,46.3,30.03,SSE,158,0.4,4.5,88,0.00,,,0.09,WUHU216HW,2013-04-19 13:27:00,
2013-04-19 06:32:00,49.7,46.3,30.03,SSW,203,6.9,6.9,88,0.00,,,0.09,WUHU216HW,2013-04-19 13:32:00,
2013-04-19 06:37:00,49.9,46.4,30.03,SSW,203,1.1,6.9,88,0.00,,,0.09,WUHU216HW,2013-04-19 13:37:00,
2013-04-19 06:42:00,49.9,46.4,30.03,SE,135,4.0,6.9,88,0.00,,,0.09,WUHU216HW,2013-04-19 13:42:00,
2013-04-19 06:47:00,49.9,46.4,30.03,SSW,203,0.7,4.0,88,0.00,,,0.09,WUHU216HW,2013-04-19 13:47:00,
2013-04-19 06:52:00,49.9,46.4,30.03,South,180,2.9,4.7,88,0.00,,,0.09,WUHU216HW,2013-04-19 13:52:00,
2013-04-19 06:58:00,50.0,46.5,30.03,SE,135,1.3,4.7,88,0.00,,,0.09,WUHU216HW,2013-04-19 13:58:00,
2013-04-19 07:03:00,50.0,46.5,30.03,SSE,158,1.1,2.9,88,0.00,,,0.09,WUHU216HW,2013-04-19 14:03:00,
2013-04-19 07:08:00,50.0,46.5,30.03,East,90,0.9,4.0,88,0.00,,,0.09,WUHU216HW,2013-04-19 14:08:00,
2013-04-19 07:13:00,50.0,46.5,30.03,ESE,113,0.9,4.0,88,0.00,,,0.09,WUHU216HW,2013-04-19 14:13:00,
2013-04-19 07:18:00,50.0,46.5,30.03,SSE,158,0.7,3.4,88,0.00,,,0.09,WUHU216HW,2013-04-19 14:18:00,
2013-04-19 07:23:00,50.2,46.7,30.02,SSE,158,3.6,3.8,88,0.00,,,0.09,WUHU216HW,2013-04-19 14:23:00,
2013-04-19 07:28:00,50.2,46.5,30.02,SSE,158,3.4,3.8,87,0.00,,,0.09,WUHU216HW,2013-04-19 14:28:00,
2013-04-19 07:33:00,50.2,46.5,30.02,SSE,158,4.0,4.0,87,0.00,,,0.09,WUHU216HW,2013-04-19 14:33:00,
2013-04-19 07:38:00,50.4,46.6,30.02,SE,135,2.7,4.7,87,0.00,,,0.09,WUHU216HW,2013-04-19 14:38:00,
2013-04-19 07:43:00,50.4,46.9,30.02,South,180,3.1,5.4,88,0.01,,,0.10,WUHU216HW,2013-04-19 14:43:00,
2013-04-19 07:48:00,50.4,46.6,30.02,South,180,1.1,5.4,87,0.01,,,0.10,WUHU216HW,2013-04-19 14:48:00,
2013-04-19 07:53:00,50.4,46.6,30.02,SE,135,4.7,4.7,87,0.01,,,0.10,WUHU216HW,2013-04-19 14:53:00,
2013-04-19 07:59:00,50.2,46.7,30.02,SSE,158,1.3,4.7,88,0.01,,,0.10,WUHU216HW,2013-04-19 14:59:00,
2013-04-19 08:04:00,50.2,46.7,30.02,SSE,158,2.2,3.8,88,0.01,,,0.10,WUHU216HW,2013-04-19 15:04:00,
2013-04-19 08:09:00,50.4,46.9,30.02,SE,135,0.7,3.4,88,0.02,,,0.11,WUHU216HW,2013-04-19 15:09:00,
2013-04-19 08:14:00,50.4,46.9,30.02,SSE,158,1.1,3.1,88,0.02,,,0.11,WUHU216HW,2013-04-19 15:14:00,
2013-04-19 08:19:00,50.4,46.9,30.02,ESE,113,1.1,2.5,88,0.02,,,0.11,WUHU216HW,2013-04-19 15:19:00,
2013-04-19 08:24:00,50.6,47.1,30.02,SSE,158,1.6,3.8,88,0.02,,,0.11,WUHU216HW,2013-04-19 15:24:00,
2013-04-19 08:29:00,50.6,47.1,30.02,South,180,1.6,3.8,88,0.02,,,0.11,WUHU216HW,2013-04-19 15:29:00,
2013-04-19 08:34:00,50.6,47.1,30.02,SE,135,0.4,2.5,88,0.03,,,0.12,WUHU216HW,2013-04-19 15:34:00,
2013-04-19 08:39:00,50.8,47.3,30.02,SSW,203,0.2,2.2,88,0.02,,,0.12,WUHU216HW,2013-04-19 15:39:00,
2013-04-19 08:44:00,50.8,47.3,30.02,SE,135,0.0,2.2,88,0.02,,,0.12,WUHU216HW,2013-04-19 15:44:00,
2013-04-19 08:49:00,50.8,47.6,30.02,South,180,0.0,2.2,89,0.02,,,0.12,WUHU216HW,2013-04-19 15:49:00,
2013-04-19 08:55:00,50.9,47.8,30.02,SSE,158,3.8,5.4,89,0.02,,,0.12,WUHU216HW,2013-04-19 15:55:00,
2013-04-19 09:00:00,50.8,47.6,30.01,SE,135,1.8,5.4,89,0.03,,,0.13,WUHU216HW,2013-04-19 16:00:00,
2013-04-19 09:05:00,50.8,47.6,30.01,SSW,203,1.8,4.3,89,0.03,,,0.13,WUHU216HW,2013-04-19 16:05:00,
2013-04-19 09:10:00,50.9,47.8,30.01,ESE,113,2.2,4.3,89,0.02,,,0.13,WUHU216HW,2013-04-19 16:10:00,
2013-04-19 09:15:00,50.8,47.6,30.01,SE,135,2.2,3.1,89,0.03,,,0.14,WUHU216HW,2013-04-19 16:15:00,
2013-04-19 09:20:00,50.9,47.8,30.01,SSE,158,1.6,3.4,89,0.03,,,0.14,WUHU216HW,2013-04-19 16:20:00,
2013-04-19 09:25:00,50.9,47.8,30.01,SE,135,2.5,3.4,89,0.04,,,0.16,WUHU216HW,2013-04-19 16:25:00,
2013-04-19 09:30:00,51.1,48.0,30.01,SSE,158,1.1,2.5,89,0.05,,,0.16,WUHU216HW,2013-04-19 16:30:00,
2013-04-19 09:35:00,51.3,48.2,30.01,ESE,113,0.9,3.4,89,0.05,,,0.18,WUHU216HW,2013-04-19 16:35:00,
2013-04-19 09:40:00,51.3,48.2,30.01,SE,135,0.4,3.4,89,0.05,,,0.18,WUHU216HW,2013-04-19 16:40:00,
2013-04-19 09:45:00,51.5,48.3,30.01,SE,135,1.8,2.5,89,0.06,,,0.18,WUHU216HW,2013-04-19 16:45:00,
2013-04-19 09:51:00,51.5,48.3,30.02,SSE,158,2.5,3.4,89,0.06,,,0.18,WUHU216HW,2013-04-19 16:51:00,
2013-04-19 09:56:00,51.7,48.5,30.02,South,180,4.7,4.7,89,0.07,,,0.19,WUHU216HW,2013-04-19 16:56:00,
2013-04-19 10:01:00,51.8,48.7,30.02,SSE,158,1.3,4.7,89,0.06,,,0.19,WUHU216HW,2013-04-19 17:01:00,
2013-04-19 10:06:00,52.2,49.1,30.02,SSE,158,1.8,4.7,89,0.06,,,0.19,WUHU216HW,2013-04-19 17:06:00,
2013-04-19 10:11:00,52.2,48.7,30.01,SSE,158,1.8,4.5,88,0.07,,,0.21,WUHU216HW,2013-04-19 17:11:00,
2013-04-19 10:16:00,52.2,48.7,30.02,SSE,158,0.7,5.1,88,0.06,,,0.21,WUHU216HW,2013-04-19 17:16:00,
2013-04-19 10:21:00,52.2,48.7,30.02,South,180,1.6,5.1,88,0.06,,,0.21,WUHU216HW,2013-04-19 17:21:00,
2013-04-19 10:26:00,52.4,48.9,30.02,SE,135,0.9,4.0,88,0.07,,,0.23,WUHU216HW,2013-04-19 17:26:00,
2013-04-19 10:31:00,52.4,48.9,30.02,SSE,158,3.6,4.3,88,0.05,,,0.23,WUHU216HW,2013-04-19 17:31:00,
2013-04-19 10:36:00,52.6,49.1,30.02,SE,135,1.1,4.3,88,0.06,,,0.23,WUHU216HW,2013-04-19 17:36:00,
2013-04-19 10:41:00,52.7,49.2,30.02,SSW,203,1.1,3.4,88,0.07,,,0.25,WUHU216HW,2013-04-19 17:41:00,
2013-04-19 10:46:00,52.9,49.4,30.02,SSE,158,2.5,4.3,88,0.06,,,0.25,WUHU216HW,2013-04-19 17:46:00,
2013-04-19 10:52:00,52.9,49.4,30.02,SSE,158,2.9,4.9,88,0.06,,,0.25,WUHU216HW,2013-04-19 17:52:00,
2013-04-19 10:57:00,52.9,49.4,30.02,ESE,113,1.1,4.9,88,0.06,,,0.25,WUHU216HW,2013-04-19 17:57:00,
2013-04-19 11:02:00,52.9,49.4,30.02,SSE,158,0.0,4.5,88,0.07,,,0.27,WUHU216HW,2013-04-19 18:02:00,
2013-04-19 11:07:00,52.9,49.4,30.02,SSE,158,2.0,3.8,88,0.07,,,0.28,WUHU216HW,2013-04-19 18:07:00,
2013-04-19 11:12:00,53.1,49.6,30.03,SSE,158,5.4,5.4,88,0.07,,,0.28,WUHU216HW,2013-04-19 18:12:00,
2013-04-19 11:17:00,53.3,49.8,30.03,SSW,203,1.6,5.4,88,0.07,,,0.29,WUHU216HW,2013-04-19 18:17:00,
2013-04-19 11:22:00,53.3,49.8,30.03,SSW,203,2.9,5.4,88,0.07,,,0.29,WUHU216HW,2013-04-19 18:22:00,
2013-04-19 11:27:00,53.3,49.8,30.03,SE,135,1.1,3.4,88,0.07,,,0.30,WUHU216HW,2013-04-19 18:27:00,
2013-04-19 11:32:00,53.5,50.0,30.03,ESE,113,3.8,3.8,88,0.06,,,0.30,WUHU216HW,2013-04-19 18:32:00,
2013-04-19 11:37:00,53.6,50.1,30.03,SE,135,2.0,3.8,88,0.06,,,0.30,WUHU216HW,2013-04-19 18:37:00,
2013-04-19 11:42:00,53.6,50.1,30.03,South,180,0.7,4.0,88,0.06,,,0.31,WUHU216HW,2013-04-19 18:42:00,
2013-04-19 11:48:00,53.8,50.3,30.03,SSE,158,0.4,4.0,88,0.05,,,0.31,WUHU216HW,2013-04-19 18:48:00,
2013-04-19 11:53:00,54.0,50.2,30.03,NNE,23,1.6,1.8,87,0.05,,,0.31,WUHU216HW,2013-04-19 18:53:00,
2013-04-19 11:58:00,54.0,50.2,30.03,SSE,158,2.5,3.6,87,0.05,,,0.32,WUHU216HW,2013-04-19 18:58:00,
2013-04-19 12:03:00,54.2,50.4,30.03,SW,225,1.1,3.6,87,0.05,,,0.32,WUHU216HW,2013-04-19 19:03:00,
2013-04-19 12:08:00,54.2,50.4,30.03,SW,225,0.7,4.3,87,0.04,,,0.32,WUHU216HW,2013-04-19 19:08:00,
2013-04-19 12:13:00,54.4,50.6,30.03,South,180,1.8,4.3,87,0.04,,,0.32,WUHU216HW,2013-04-19 19:13:00,
2013-04-19 12:18:00,54.4,50.6,30.03,ESE,113,1.8,3.8,87,0.03,,,0.32,WUHU216HW,2013-04-19 19:18:00,
2013-04-19 12:23:00,54.5,50.8,30.04,ESE,113,0.2,3.8,87,0.03,,,0.32,WUHU216HW,2013-04-19 19:23:00,
2013-04-19 12:28:00,54.7,50.9,30.04,South,180,2.7,2.9,87,0.03,,,0.32,WUHU216HW,2013-04-19 19:28:00,
2013-04-19 12:33:00,55.1,51.2,30.04,SSE,158,1.1,2.9,87,0.04,,,0.34,WUHU216HW,2013-04-19 19:33:00,
2013-04-19 12:38:00,55.4,51.6,30.04,SSE,158,1.8,2.5,87,0.03,,,0.34,WUHU216HW,2013-04-19 19:38:00,
2013-04-19 12:43:00,55.6,51.8,30.04,ENE,68,0.7,2.5,87,0.03,,,0.34,WUHU216HW,2013-04-19 19:43:00,
2013-04-19 12:49:00,55.8,51.7,30.04,ESE,113,1.6,2.5,86,0.03,,,0.34,WUHU216HW,2013-04-19 19:49:00,
2013-04-19 12:54:00,56.0,51.9,30.04,SE,135,1.8,3.6,86,0.02,,,0.34,WUHU216HW,2013-04-19 19:54:00,
2013-04-19 12:59:00,56.2,52.0,30.04,SE,135,2.9,3.6,86,0.02,,,0.34,WUHU216HW,2013-04-19 19:59:00,
2013-04-19 13:04:00,56.2,52.0,30.04,ESE,113,1.3,4.3,86,0.03,,,0.35,WUHU216HW,2013-04-19 20:04:00,
2013-04-19 13:09:00,56.2,51.7,30.04,South,180,2.9,4.3,85,0.03,,,0.35,WUHU216HW,2013-04-19 20:09:00,
2013-04-19 13:14:00,56.2,51.7,30.04,South,180,0.9,2.9,85,0.03,,,0.35,WUHU216HW,2013-04-19 20:14:00,
2013-04-19 13:19:00,56.2,51.7,30.04,SE,135,0.4,2.7,85,0.02,,,0.35,WUHU216HW,2013-04-19 20:19:00,
2013-04-19 13:24:00,56.2,51.7,30.04,SSE,158,2.7,3.4,85,0.02,,,0.35,WUHU216HW,2013-04-19 20:24:00,
2013-04-19 13:29:00,56.3,51.8,30.04,SE,135,2.0,3.6,85,0.03,,,0.36,WUHU216HW,2013-04-19 20:29:00,
2013-04-19 13:34:00,56.7,52.6,30.04,SSE,158,0.9,3.6,86,0.02,,,0.36,WUHU216HW,2013-04-19 20:34:00,
2013-04-19 13:39:00,57.2,53.1,30.04,SE,135,1.8,2.7,86,0.02,,,0.36,WUHU216HW,2013-04-19 20:39:00,
2013-04-19 13:45:00,57.8,53.7,30.04,SSW,203,2.5,4.5,86,0.02,,,0.36,WUHU216HW,2013-04-19 20:45:00,
2013-04-19 13:50:00,58.0,53.5,30.04,South,180,0.4,4.5,85,0.02,,,0.36,WUHU216HW,2013-04-19 20:50:00,
2013-04-19 13:55:00,58.1,53.6,30.04,SSE,158,0.4,3.4,85,0.02,,,0.36,WUHU216HW,2013-04-19 20:55:00,
2013-04-19 14:00:00,58.0,53.5,30.04,SSW,203,0.7,2.2,85,0.02,,,0.36,WUHU216HW,2013-04-19 21:00:00,
2013-04-19 14:05:00,57.6,52.7,30.04,South,180,2.5,2.9,84,0.01,,,0.36,WUHU216HW,2013-04-19 21:05:00,
2013-04-19 14:10:00,57.2,52.4,30.04,South,180,1.1,2.9,84,0.02,,,0.37,WUHU216HW,2013-04-19 21:10:00,
2013-04-19 14:15:00,56.9,52.0,30.04,SSE,158,0.4,2.5,84,0.02,,,0.37,WUHU216HW,2013-04-19 21:15:00,
2013-04-19 14:20:00,56.9,52.0,30.04,ESE,113,0.9,2.2,84,0.02,,,0.37,WUHU216HW,2013-04-19 21:20:00,
2013-04-19 14:25:00,57.2,52.4,30.04,North,0,0.2,2.2,84,0.01,,,0.37,WUHU216HW,2013-04-19 21:25:00,
2013-04-19 14:30:00,57.6,53.1,30.04,NE,45,0.4,1.1,85,0.01,,,0.37,WUHU216HW,2013-04-19 21:30:00,
2013-04-19 14:35:00,57.8,52.9,30.04,SSE,158,1.1,2.5,84,0.02,,,0.38,WUHU216HW,2013-04-19 21:35:00,
2013-04-19 14:41:00,57.8,52.9,30.04,South,180,0.7,3.4,84,0.02,,,0.38,WUHU216HW,2013-04-19 21:41:00,
2013-04-19 14:46:00,57.6,52.7,30.05,SE,135,0.9,3.4,84,0.02,,,0.38,WUHU216HW,2013-04-19 21:46:00,
2013-04-19 14:51:00,57.4,52.6,30.05,WSW,248,0.0,1.8,84,0.02,,,0.38,WUHU216HW,2013-04-19 21:51:00,
2013-04-19 14:56:00,57.4,52.6,30.05,SSE,158,0.4,0.9,84,0.02,,,0.38,WUHU216HW,2013-04-19 21:56:00,
2013-04-19 15:01:00,57.4,52.6,30.05,WNW,293,0.0,1.6,84,0.02,,,0.38,WUHU216HW,2013-04-19 22:01:00,
2013-04-19 15:06:00,57.4,52.6,30.05,WSW,248,0.2,1.6,84,0.01,,,0.38,WUHU216HW,2013-04-19 22:06:00,
2013-04-19 15:11:00,57.4,52.6,30.05,West,270,3.1,3.4,84,0.01,,,0.38,WUHU216HW,2013-04-19 22:11:00,
2013-04-19 15:16:00,57.8,52.9,30.05,SW,225,1.1,3.4,84,0.01,,,0.38,WUHU216HW,2013-04-19 22:16:00,
2013-04-19 15:21:00,58.0,53.1,30.06,South,180,2.0,2.0,84,0.01,,,0.38,WUHU216HW,2013-04-19 22:21:00,
2013-04-19 15:26:00,57.8,52.7,30.06,WNW,293,0.4,2.0,83,0.01,,,0.38,WUHU216HW,2013-04-19 22:26:00,
2013-04-19 15:31:00,57.6,52.5,30.05,SE,135,1.3,3.1,83,0.00,,,0.38,WUHU216HW,2013-04-19 22:31:00,
2013-04-19 15:37:00,57.2,52.1,30.06,NW,315,0.0,3.1,83,0.00,,,0.38,WUHU216HW,2013-04-19 22:37:00,
2013-04-19 15:42:00,57.1,51.9,30.06,NW,315,0.0,2.0,83,0.00,,,0.38,WUHU216HW,2013-04-19 22:42:00,
2013-04-19 15:47:00,56.7,51.8,30.06,WSW,248,0.0,1.1,84,0.00,,,0.38,WUHU216HW,2013-04-19 22:47:00,
2013-04-19 15:52:00,56.5,51.7,30.06,ESE,113,0.7,0.9,84,0.00,,,0.38,WUHU216HW,2013-04-19 22:52:00,
2013-04-19 15:57:00,56.5,51.4,30.06,East,90,0.0,0.7,83,0.01,,,0.39,WUHU216HW,2013-04-19 22:57:00,
2013-04-19 16:02:00,56.3,51.2,30.06,NNW,338,0.4,0.4,83,0.01,,,0.39,WUHU216HW,2013-04-19 23:02:00,
2013-04-19 16:07:00,56.2,51.0,30.06,SSW,203,0.0,0.9,83,0.01,,,0.39,WUHU216HW,2013-04-19 23:07:00,
2013-04-19 16:12:00,56.2,51.3,30.06,WSW,248,0.0,2.5,84,0.01,,,0.39,WUHU216HW,2013-04-19 23:12:00,
2013-04-19 16:17:00,56.0,51.1,30.06,NW,315,0.0,2.5,84,0.02,,,0.40,WUHU216HW,2013-04-19 23:17:00,
2013-04-19 16:22:00,56.0,51.1,30.07,North,0,0.2,0.4,84,0.02,,,0.40,WUHU216HW,2013-04-19 23:22:00,
2013-04-19 16:27:00,56.0,51.1,30.06,NW,315,0.7,2.2,84,0.02,,,0.40,WUHU216HW,2013-04-19 23:27:00,
2013-04-19 16:33:00,55.8,50.9,30.06,West,270,0.9,2.2,84,0.02,,,0.40,WUHU216HW,2013-04-19 23:33:00,
2013-04-19 16:38:00,55.8,50.9,30.07,North,0,0.2,1.3,84,0.02,,,0.40,WUHU216HW,2013-04-19 23:38:00,
2013-04-19 16:43:00,55.6,50.8,30.07,WNW,293,0.0,1.6,84,0.02,,,0.40,WUHU216HW,2013-04-19 23:43:00,
2013-04-19 16:48:00,55.6,50.8,30.07,NNW,338,0.0,1.6,84,0.02,,,0.40,WUHU216HW,2013-04-19 23:48:00,
2013-04-19 16:53:00,55.6,50.8,30.07,NW,315,0.0,0.4,84,0.01,,,0.40,WUHU216HW,2013-04-19 23:53:00,
2013-04-19 16:58:00,55.8,50.9,30.06,North,0,0.0,0.4,84,0.01,,,0.40,WUHU216HW,2013-04-19 23:58:00,
2013-04-19 17:03:00,55.8,50.9,30.07,NNW,338,0.2,0.7,84,0.01,,,0.40,WUHU216HW,2013-04-20 00:03:00,
2013-04-19 17:08:00,55.6,50.8,30.07,North,0,0.2,0.7,84,0.01,,,0.40,WUHU216HW,2013-04-20 00:08:00,
2013-04-19 17:13:00,55.4,50.6,30.07,North,0,0.0,0.9,84,0.00,,,0.40,WUHU216HW,2013-04-20 00:13:00,
2013-04-19 17:18:00,55.4,50.9,30.07,NW,315,0.0,2.5,85,0.00,,,0.40,WUHU216HW,2013-04-20 00:18:00,
2013-04-19 17:23:00,55.4,50.9,30.07,NW,315,0.2,2.5,85,0.01,,,0.41,WUHU216HW,2013-04-20 00:23:00,
2013-04-19 17:28:00,55.4,50.9,30.07,NW,315,0.0,2.5,85,0.01,,,0.41,WUHU216HW,2013-04-20 00:28:00,
2013-04-19 17:34:00,55.6,51.1,30.07,NNW,338,0.4,1.6,85,0.01,,,0.41,WUHU216HW,2013-04-20 00:34:00,
2013-04-19 17:39:00,55.6,51.1,30.07,NNW,338,0.9,1.6,85,0.01,,,0.41,WUHU216HW,2013-04-20 00:39:00,
2013-04-19 17:44:00,55.6,51.1,30.07,WSW,248,0.0,1.1,85,0.01,,,0.41,WUHU216HW,2013-04-20 00:44:00,
2013-04-19 17:49:00,55.3,50.5,30.07,NNW,338,0.4,1.6,84,0.01,,,0.41,WUHU216HW,2013-04-20 00:49:00,
2013-04-19 17:54:00,55.1,50.6,30.07,NW,315,0.0,1.6,85,0.01,,,0.41,WUHU216HW,2013-04-20 00:54:00,
2013-04-19 17:59:00,55.1,50.6,30.07,NNW,338,0.0,0.4,85,0.01,,,0.41,WUHU216HW,2013-04-20 00:59:00,
2013-04-19 18:04:00,54.9,50.4,30.07,North,0,0.0,0.9,85,0.01,,,0.41,WUHU216HW,2013-04-20 01:04:00,
2013-04-19 18:09:00,54.5,50.1,30.07,NNW,338,0.2,0.9,85,0.01,,,0.41,WUHU216HW,2013-04-20 01:09:00,
2013-04-19 18:14:00,54.4,50.0,30.07,North,0,0.0,1.8,85,0.01,,,0.41,WUHU216HW,2013-04-20 01:14:00,
2013-04-19 18:19:00,54.0,49.9,30.07,NE,45,0.4,1.8,86,0.00,,,0.41,WUHU216HW,2013-04-20 01:19:00,
2013-04-19 18:24:00,53.6,49.5,30.07,North,0,0.0,1.8,86,0.00,,,0.41,WUHU216HW,2013-04-20 01:24:00,
2013-04-19 18:30:00,53.6,49.5,30.07,North,0,0.2,1.8,86,0.01,,,0.42,WUHU216HW,2013-04-20 01:30:00,
2013-04-19 18:35:00,53.3,49.1,30.08,North,0,1.1,1.1,86,0.01,,,0.42,WUHU216HW,2013-04-20 01:35:00,
2013-04-19 18:40:00,53.1,49.0,30.08,North,0,0.9,1.3,86,0.01,,,0.42,WUHU216HW,2013-04-20 01:40:00,
2013-04-19 18:45:00,52.9,48.8,30.08,NNE,23,0.2,1.3,86,0.01,,,0.42,WUHU216HW,2013-04-20 01:45:00,
2013-04-19 18:50:00,52.9,49.2,30.08,NNE,23,2.2,4.0,87,0.02,,,0.43,WUHU216HW,2013-04-20 01:50:00,
2013-04-19 18:55:00,52.2,48.4,30.09,NNW,338,1.1,4.0,87,0.03,,,0.44,WUHU216HW,2013-04-20 01:55:00,
2013-04-19 19:00:00,52.0,48.3,30.08,NE,45,0.2,2.2,87,0.04,,,0.45,WUHU216HW,2013-04-20 02:00:00,
2013-04-19 19:05:00,52.0,48.5,30.08,NNE,23,1.3,2.9,88,0.06,,,0.47,WUHU216HW,2013-04-20 02:05:00,
2013-04-19 19:10:00,51.7,48.2,30.08,North,0,0.0,3.1,88,0.07,,,0.48,WUHU216HW,2013-04-20 02:10:00,
2013-04-19 19:15:00,51.5,48.0,30.08,NNE,23,0.7,3.1,88,0.07,,,0.48,WUHU216HW,2013-04-20 02:15:00,
2013-04-19 19:20:00,51.5,48.0,30.09,North,0,0.0,2.0,88,0.07,,,0.48,WUHU216HW,2013-04-20 02:20:00,
2013-04-19 19:25:00,51.5,48.0,30.08,NE,45,0.4,2.2,88,0.07,,,0.48,WUHU216HW,2013-04-20 02:25:00,
2013-04-19 19:31:00,51.5,48.0,30.09,East,90,0.2,2.2,88,0.06,,,0.48,WUHU216HW,2013-04-20 02:31:00,
2013-04-19 19:36:00,51.7,48.2,30.09,SE,135,0.7,1.1,88,0.06,,,0.48,WUHU216HW,2013-04-20 02:36:00,
2013-04-19 19:41:00,51.8,48.3,30.09,ESE,113,0.7,0.9,88,0.06,,,0.48,WUHU216HW,2013-04-20 02:41:00,
2013-04-19 19:46:00,51.8,48.3,30.09,SE,135,0.4,1.3,88,0.05,,,0.48,WUHU216HW,2013-04-20 02:46:00,
2013-04-19 19:51:00,51.8,48.3,30.09,ESE,113,0.7,1.3,88,0.04,,,0.48,WUHU216HW,2013-04-20 02:51:00,
2013-04-19 19:56:00,51.8,48.3,30.10,ESE,113,0.0,1.1,88,0.03,,,0.48,WUHU216HW,2013-04-20 02:56:00,
2013-04-19 20:01:00,51.8,48.3,30.09,ESE,113,1.1,1.1,88,0.02,,,0.48,WUHU216HW,2013-04-20 03:01:00,
2013-04-19 20:06:00,51.7,48.2,30.10,South,180,0.4,1.1,88,0.00,,,0.48,WUHU216HW,2013-04-20 03:06:00,
2013-04-19 20:11:00,51.7,48.2,30.10,SE,135,0.4,1.1,88,0.00,,,0.48,WUHU216HW,2013-04-20 03:11:00,
2013-04-19 20:16:00,51.7,48.2,30.10,SE,135,0.9,0.9,88,0.00,,,0.48,WUHU216HW,2013-04-20 03:16:00,
2013-04-19 20:21:00,51.5,48.0,30.10,SE,135,0.2,1.1,88,0.00,,,0.48,WUHU216HW,2013-04-20 03:21:00,
2013-04-19 20:27:00,51.5,48.0,30.10,SSE,158,0.2,1.1,88,0.00,,,0.48,WUHU216HW,2013-04-20 03:27:00,
2013-04-19 20:32:00,51.5,48.0,30.11,ESE,113,0.9,0.9,88,0.00,,,0.48,WUHU216HW,2013-04-20 03:32:00,
2013-04-19 20:37:00,51.5,48.0,30.11,East,90,0.7,1.8,88,0.00,,,0.48,WUHU216HW,2013-04-20 03:37:00,
2013-04-19 20:42:00,51.5,48.0,30.11,ESE,113,0.9,1.8,88,0.00,,,0.48,WUHU216HW,2013-04-20 03:42:00,
2013-04-19 20:47:00,51.3,47.8,30.11,NNE,23,0.7,1.6,88,0.00,,,0.48,WUHU216HW,2013-04-20 03:47:00,
2013-04-19 20:52:00,51.3,47.8,30.12,NNE,23,0.0,0.7,88,0.00,,,0.48,WUHU216HW,2013-04-20 03:52:00,
2013-04-19 20:57:00,51.1,47.6,30.12,North,0,0.0,0.7,88,0.00,,,0.48,WUHU216HW,2013-04-20 03:57:00,
2013-04-19 21:01:00,51.1,47.6,30.12,NNE,23,1.6,1.6,88,0.00,,,0.48,WUHU216HW,2013-04-20 04:01:00,
2013-04-19 21:02:00,50.9,47.4,30.12,NNE,23,4.0,4.0,88,0.00,,,0.48,WUHU216HW,2013-04-20 04:02:00,
2013-04-19 21:07:00,50.8,47.3,30.12,NNW,338,0.7,4.0,88,0.00,,,0.48,WUHU216HW,2013-04-20 04:07:00,
2013-04-19 21:12:00,50.6,47.1,30.12,South,180,2.0,4.0,88,0.00,,,0.48,WUHU216HW,2013-04-20 04:12:00,
2013-04-19 21:17:00,50.6,47.1,30.12,SSE,158,2.7,3.1,88,0.00,,,0.48,WUHU216HW,2013-04-20 04:17:00,
2013-04-19 21:22:00,50.6,47.1,30.12,South,180,2.2,3.8,88,0.00,,,0.48,WUHU216HW,2013-04-20 04:22:00,
2013-04-19 21:28:00,50.6,47.1,30.12,ENE,68,0.4,3.8,88,0.01,,,0.49,WUHU216HW,2013-04-20 04:28:00,
2013-04-19 21:33:00,50.6,47.1,30.13,SE,135,0.0,2.9,88,0.01,,,0.49,WUHU216HW,2013-04-20 04:33:00,
2013-04-19 21:38:00,50.6,47.1,30.13,ESE,113,0.2,1.1,88,0.01,,,0.49,WUHU216HW,2013-04-20 04:38:00,
2013-04-19 21:43:00,50.6,47.1,30.13,SSE,158,4.7,4.7,88,0.01,,,0.49,WUHU216HW,2013-04-20 04:43:00,
2013-04-19 21:48:00,50.6,47.1,30.13,SE,135,1.1,4.7,88,0.01,,,0.49,WUHU216HW,2013-04-20 04:48:00,
2013-04-19 21:53:00,50.6,47.1,30.13,SE,135,1.1,4.5,88,0.01,,,0.49,WUHU216HW,2013-04-20 04:53:00,
2013-04-19 21:58:00,50.6,47.1,30.13,SE,135,1.1,1.1,88,0.01,,,0.49,WUHU216HW,2013-04-20 04:58:00,
2013-04-19 22:03:00,50.6,47.1,30.13,SSE,158,1.1,2.5,88,0.01,,,0.49,WUHU216HW,2013-04-20 05:03:00,
2013-04-19 22:08:00,50.6,47.1,30.13,SSW,203,0.0,2.9,88,0.01,,,0.49,WUHU216HW,2013-04-20 05:08:00,
2013-04-19 22:13:00,50.6,47.1,30.13,South,180,0.0,2.9,88,0.01,,,0.49,WUHU216HW,2013-04-20 05:13:00,
2013-04-19 22:18:00,50.6,47.1,30.13,SW,225,0.0,1.6,88,0.01,,,0.49,WUHU216HW,2013-04-20 05:18:00,
2013-04-19 22:24:00,50.6,47.1,30.13,SSE,158,1.1,2.7,88,0.00,,,0.49,WUHU216HW,2013-04-20 05:24:00,
2013-04-19 22:29:00,50.6,46.8,30.13,South,180,3.1,3.4,87,0.00,,,0.49,WUHU216HW,2013-04-20 05:29:00,
2013-04-19 22:34:00,50.4,46.6,30.13,South,180,0.4,3.8,87,0.00,,,0.49,WUHU216HW,2013-04-20 05:34:00,
2013-04-19 22:39:00,50.4,46.6,30.14,SSE,158,0.7,3.8,87,0.00,,,0.49,WUHU216HW,2013-04-20 05:39:00,
2013-04-19 22:44:00,50.2,46.5,30.14,South,180,3.6,3.6,87,0.00,,,0.49,WUHU216HW,2013-04-20 05:44:00,
2013-04-19 22:49:00,50.2,46.5,30.14,SSW,203,2.5,4.7,87,0.00,,,0.49,WUHU216HW,2013-04-20 05:49:00,
2013-04-19 22:54:00,50.0,46.3,30.14,SSE,158,2.5,5.4,87,0.00,,,0.49,WUHU216HW,2013-04-20 05:54:00,
2013-04-19 22:59:00,50.0,46.3,30.15,SSE,158,1.6,5.6,87,0.00,,,0.49,WUHU216HW,2013-04-20 05:59:00,
2013-04-19 23:04:00,49.9,46.1,30.14,SE,135,1.1,5.6,87,0.00,,,0.49,WUHU216HW,2013-04-20 06:04:00,
2013-04-19 23:09:00,49.9,46.1,30.14,SSE,158,3.4,4.7,87,0.00,,,0.49,WUHU216HW,2013-04-20 06:09:00,
2013-04-19 23:14:00,49.9,46.1,30.14,SSE,158,2.5,4.7,87,0.00,,,0.49,WUHU216HW,2013-04-20 06:14:00,
2013-04-19 23:20:00,49.7,45.9,30.14,South,180,0.4,2.5,87,0.00,,,0.49,WUHU216HW,2013-04-20 06:20:00,
2013-04-19 23:25:00,49.7,45.9,30.14,South,180,2.7,3.4,87,0.00,,,0.49,WUHU216HW,2013-04-20 06:25:00,
2013-04-19 23:30:00,49.7,45.9,30.14,SE,135,1.6,3.4,87,0.00,,,0.49,WUHU216HW,2013-04-20 06:30:00,
2013-04-19 23:35:00,49.5,45.7,30.14,South,180,3.1,4.3,87,0.00,,,0.49,WUHU216HW,2013-04-20 06:35:00,
2013-04-19 23:40:00,49.5,46.1,30.14,SSE,158,2.5,4.3,88,0.00,,,0.49,WUHU216HW,2013-04-20 06:40:00,
2013-04-19 23:45:00,49.5,46.1,30.14,SE,135,1.1,3.4,88,0.00,,,0.49,WUHU216HW,2013-04-20 06:45:00,
2013-04-19 23:50:00,49.5,46.1,30.14,SE,135,2.9,3.8,88,0.00,,,0.49,WUHU216HW,2013-04-20 06:50:00,
2013-04-19 23:55:00,49.3,45.9,30.14,South,180,2.9,4.0,88,0.00,,,0.49,WUHU216HW,2013-04-20 06:55:00,